sensor_id;sensor_type;location;lat;lon;timestamp;temperature;humidity
15099;DHT22;33900;53.640;9.942;2023-04-25T00:02:04;13.00;88.60
15099;DHT22;33900;53.640;9.942;2023-04-25T00:04:30;13.00;88.50
15099;DHT22;33900;53.640;9.942;2023-04-25T00:06:58;13.00;88.50
15099;DHT22;33900;53.640;9.942;2023-04-25T00:09:27;13.00;88.60
15099;DHT22;33900;53.640;9.942;2023-04-25T00:11:52;12.90;88.40
15099;DHT22;33900;53.640;9.942;2023-04-25T00:14:18;12.90;88.50
15099;DHT22;33900;53.640;9.942;2023-04-25T00:16:44;12.90;88.50
15099;DHT22;33900;53.640;9.942;2023-04-25T00:19:10;12.90;88.40
15099;DHT22;33900;53.640;9.942;2023-04-25T00:21:35;12.90;88.40
15099;DHT22;33900;53.640;9.942;2023-04-25T00:24:03;12.80;88.30
15099;DHT22;33900;53.640;9.942;2023-04-25T00:26:28;12.80;88.20
15099;DHT22;33900;53.640;9.942;2023-04-25T00:28:54;12.80;88.20
15099;DHT22;33900;53.640;9.942;2023-04-25T00:31:20;12.70;88.00
15099;DHT22;33900;53.640;9.942;2023-04-25T00:33:45;12.70;87.90
15099;DHT22;33900;53.640;9.942;2023-04-25T00:36:11;12.60;87.80
15099;DHT22;33900;53.640;9.942;2023-04-25T00:38:37;12.60;87.80
15099;DHT22;33900;53.640;9.942;2023-04-25T00:41:07;12.60;88.60
15099;DHT22;33900;53.640;9.942;2023-04-25T00:43:36;12.60;87.90
15099;DHT22;33900;53.640;9.942;2023-04-25T00:46:02;12.50;87.90
15099;DHT22;33900;53.640;9.942;2023-04-25T00:48:27;12.50;87.80
15099;DHT22;33900;53.640;9.942;2023-04-25T00:50:54;12.50;87.70
15099;DHT22;33900;53.640;9.942;2023-04-25T00:53:23;12.40;87.50
15099;DHT22;33900;53.640;9.942;2023-04-25T00:56:06;12.40;87.40
15099;DHT22;33900;53.640;9.942;2023-04-25T00:58:32;12.40;87.50
15099;DHT22;33900;53.640;9.942;2023-04-25T01:00:57;12.30;87.40
15099;DHT22;33900;53.640;9.942;2023-04-25T01:03:23;12.30;87.40
15099;DHT22;33900;53.640;9.942;2023-04-25T01:05:49;12.30;87.40
15099;DHT22;33900;53.640;9.942;2023-04-25T01:08:15;12.30;87.40
15099;DHT22;33900;53.640;9.942;2023-04-25T01:10:41;12.20;87.30
15099;DHT22;33900;53.640;9.942;2023-04-25T01:13:07;12.20;87.40
15099;DHT22;33900;53.640;9.942;2023-04-25T01:15:33;12.20;87.20
15099;DHT22;33900;53.640;9.942;2023-04-25T01:18:00;12.10;87.20
15099;DHT22;33900;53.640;9.942;2023-04-25T01:20:27;12.20;87.10
15099;DHT22;33900;53.640;9.942;2023-04-25T01:22:55;12.10;86.90
15099;DHT22;33900;53.640;9.942;2023-04-25T01:25:21;12.10;86.90
15099;DHT22;33900;53.640;9.942;2023-04-25T01:27:47;12.00;86.90
15099;DHT22;33900;53.640;9.942;2023-04-25T01:30:14;12.00;86.80
15099;DHT22;33900;53.640;9.942;2023-04-25T01:32:41;12.00;86.80
15099;DHT22;33900;53.640;9.942;2023-04-25T01:35:08;12.00;86.70
15099;DHT22;33900;53.640;9.942;2023-04-25T01:37:35;12.00;86.80
15099;DHT22;33900;53.640;9.942;2023-04-25T01:40:01;11.90;86.60
15099;DHT22;33900;53.640;9.942;2023-04-25T01:42:28;11.90;86.60
15099;DHT22;33900;53.640;9.942;2023-04-25T01:44:53;11.90;86.50
15099;DHT22;33900;53.640;9.942;2023-04-25T01:47:19;11.90;86.40
15099;DHT22;33900;53.640;9.942;2023-04-25T01:49:45;11.80;86.50
15099;DHT22;33900;53.640;9.942;2023-04-25T01:52:10;11.80;86.40
15099;DHT22;33900;53.640;9.942;2023-04-25T01:54:36;11.80;86.40
15099;DHT22;33900;53.640;9.942;2023-04-25T01:57:02;11.80;86.20
15099;DHT22;33900;53.640;9.942;2023-04-25T01:59:29;11.80;86.00
15099;DHT22;33900;53.640;9.942;2023-04-25T02:02:04;11.70;85.70
15099;DHT22;33900;53.640;9.942;2023-04-25T02:04:31;11.70;85.70
15099;DHT22;33900;53.640;9.942;2023-04-25T02:06:58;11.70;85.50
15099;DHT22;33900;53.640;9.942;2023-04-25T02:09:30;11.70;85.20
15099;DHT22;33900;53.640;9.942;2023-04-25T02:11:57;11.60;85.10
15099;DHT22;33900;53.640;9.942;2023-04-25T02:14:36;11.60;84.90
15099;DHT22;33900;53.640;9.942;2023-04-25T02:17:12;11.60;84.80
15099;DHT22;33900;53.640;9.942;2023-04-25T02:19:39;11.60;84.60
15099;DHT22;33900;53.640;9.942;2023-04-25T02:22:06;11.50;84.40
15099;DHT22;33900;53.640;9.942;2023-04-25T02:24:32;11.50;84.60
15099;DHT22;33900;53.640;9.942;2023-04-25T02:26:59;11.50;84.70
15099;DHT22;33900;53.640;9.942;2023-04-25T02:32:54;11.50;84.60
15099;DHT22;33900;53.640;9.942;2023-04-25T02:35:19;11.50;84.40
15099;DHT22;33900;53.640;9.942;2023-04-25T02:37:45;11.40;84.40
15099;DHT22;33900;53.640;9.942;2023-04-25T02:40:12;11.40;84.30
15099;DHT22;33900;53.640;9.942;2023-04-25T02:42:38;11.40;84.30
15099;DHT22;33900;53.640;9.942;2023-04-25T02:45:04;11.40;84.20
15099;DHT22;33900;53.640;9.942;2023-04-25T02:47:30;11.40;84.10
15099;DHT22;33900;53.640;9.942;2023-04-25T02:49:55;11.30;84.00
15099;DHT22;33900;53.640;9.942;2023-04-25T02:52:22;11.30;83.90
15099;DHT22;33900;53.640;9.942;2023-04-25T02:54:55;11.30;83.80
15099;DHT22;33900;53.640;9.942;2023-04-25T02:57:20;11.30;83.80
15099;DHT22;33900;53.640;9.942;2023-04-25T02:59:46;11.30;83.80
15099;DHT22;33900;53.640;9.942;2023-04-25T03:02:12;11.30;83.50
15099;DHT22;33900;53.640;9.942;2023-04-25T03:04:37;11.20;83.00
15099;DHT22;33900;53.640;9.942;2023-04-25T03:07:03;11.30;83.00
15099;DHT22;33900;53.640;9.942;2023-04-25T03:09:29;11.20;82.90
15099;DHT22;33900;53.640;9.942;2023-04-25T03:11:54;11.20;83.00
15099;DHT22;33900;53.640;9.942;2023-04-25T03:14:20;11.20;83.10
15099;DHT22;33900;53.640;9.942;2023-04-25T03:16:46;11.20;83.10
15099;DHT22;33900;53.640;9.942;2023-04-25T03:19:12;11.20;83.00
15099;DHT22;33900;53.640;9.942;2023-04-25T03:21:37;11.10;82.80
15099;DHT22;33900;53.640;9.942;2023-04-25T03:24:04;11.20;82.90
15099;DHT22;33900;53.640;9.942;2023-04-25T03:26:30;11.10;82.80
15099;DHT22;33900;53.640;9.942;2023-04-25T03:28:55;11.00;82.60
15099;DHT22;33900;53.640;9.942;2023-04-25T03:31:21;11.00;82.50
15099;DHT22;33900;53.640;9.942;2023-04-25T03:33:48;11.00;82.40
15099;DHT22;33900;53.640;9.942;2023-04-25T03:36:14;11.00;82.30
15099;DHT22;33900;53.640;9.942;2023-04-25T03:38:39;11.00;82.10
15099;DHT22;33900;53.640;9.942;2023-04-25T03:41:07;10.90;82.00
15099;DHT22;33900;53.640;9.942;2023-04-25T03:43:55;10.90;81.70
15099;DHT22;33900;53.640;9.942;2023-04-25T03:46:22;10.90;81.50
15099;DHT22;33900;53.640;9.942;2023-04-25T03:48:48;10.80;81.20
15099;DHT22;33900;53.640;9.942;2023-04-25T03:51:20;10.80;80.90
15099;DHT22;33900;53.640;9.942;2023-04-25T03:53:47;10.80;80.90
15099;DHT22;33900;53.640;9.942;2023-04-25T03:56:12;10.80;81.00
15099;DHT22;33900;53.640;9.942;2023-04-25T03:58:39;10.80;80.90
15099;DHT22;33900;53.640;9.942;2023-04-25T04:01:06;10.80;81.00
15099;DHT22;33900;53.640;9.942;2023-04-25T04:03:35;10.80;81.00
15099;DHT22;33900;53.640;9.942;2023-04-25T04:06:05;10.80;81.00
15099;DHT22;33900;53.640;9.942;2023-04-25T04:08:34;10.70;80.70
15099;DHT22;33900;53.640;9.942;2023-04-25T04:11:00;10.70;80.50
15099;DHT22;33900;53.640;9.942;2023-04-25T04:13:26;10.70;80.30
15099;DHT22;33900;53.640;9.942;2023-04-25T04:15:52;10.70;80.10
15099;DHT22;33900;53.640;9.942;2023-04-25T04:18:18;10.70;80.10
15099;DHT22;33900;53.640;9.942;2023-04-25T04:20:44;10.60;80.10
15099;DHT22;33900;53.640;9.942;2023-04-25T04:23:11;10.70;80.00
15099;DHT22;33900;53.640;9.942;2023-04-25T04:25:37;10.60;79.60
15099;DHT22;33900;53.640;9.942;2023-04-25T04:28:25;10.60;79.70
15099;DHT22;33900;53.640;9.942;2023-04-25T04:31:14;10.60;79.70
15099;DHT22;33900;53.640;9.942;2023-04-25T04:33:45;10.60;79.60
15099;DHT22;33900;53.640;9.942;2023-04-25T04:36:14;10.60;79.60
15099;DHT22;33900;53.640;9.942;2023-04-25T04:38:41;10.60;79.60
15099;DHT22;33900;53.640;9.942;2023-04-25T04:41:10;10.60;79.70
15099;DHT22;33900;53.640;9.942;2023-04-25T04:43:55;10.50;79.70
15099;DHT22;33900;53.640;9.942;2023-04-25T04:46:39;10.50;79.00
15099;DHT22;33900;53.640;9.942;2023-04-25T04:49:31;10.50;79.30
15099;DHT22;33900;53.640;9.942;2023-04-25T04:52:16;10.50;79.30
15099;DHT22;33900;53.640;9.942;2023-04-25T04:55:02;10.50;79.20
15099;DHT22;33900;53.640;9.942;2023-04-25T04:57:52;10.50;79.40
15099;DHT22;33900;53.640;9.942;2023-04-25T05:00:29;10.60;79.40
15099;DHT22;33900;53.640;9.942;2023-04-25T05:03:18;10.50;79.10
15099;DHT22;33900;53.640;9.942;2023-04-25T05:06:02;10.50;79.10
15099;DHT22;33900;53.640;9.942;2023-04-25T05:08:31;10.50;79.00
15099;DHT22;33900;53.640;9.942;2023-04-25T05:11:26;10.50;78.20
15099;DHT22;33900;53.640;9.942;2023-04-25T05:14:17;10.50;77.80
15099;DHT22;33900;53.640;9.942;2023-04-25T05:17:15;10.50;78.00
15099;DHT22;33900;53.640;9.942;2023-04-25T05:20:00;10.50;78.20
15099;DHT22;33900;53.640;9.942;2023-04-25T05:23:00;10.50;78.50
15099;DHT22;33900;53.640;9.942;2023-04-25T05:25:44;10.50;78.80
15099;DHT22;33900;53.640;9.942;2023-04-25T05:28:33;10.50;79.10
15099;DHT22;33900;53.640;9.942;2023-04-25T05:31:12;10.50;79.40
15099;DHT22;33900;53.640;9.942;2023-04-25T05:34:04;10.40;79.60
15099;DHT22;33900;53.640;9.942;2023-04-25T05:36:45;10.50;79.90
15099;DHT22;33900;53.640;9.942;2023-04-25T05:39:15;10.50;80.20
15099;DHT22;33900;53.640;9.942;2023-04-25T05:42:00;10.50;80.30
15099;DHT22;33900;53.640;9.942;2023-04-25T05:44:47;10.50;80.30
15099;DHT22;33900;53.640;9.942;2023-04-25T05:47:38;10.50;80.50
15099;DHT22;33900;53.640;9.942;2023-04-25T05:50:27;10.50;80.70
15099;DHT22;33900;53.640;9.942;2023-04-25T05:53:11;10.50;80.70
15099;DHT22;33900;53.640;9.942;2023-04-25T05:55:40;10.50;80.80
15099;DHT22;33900;53.640;9.942;2023-04-25T05:58:24;10.50;81.00
15099;DHT22;33900;53.640;9.942;2023-04-25T06:00:49;10.60;81.90
15099;DHT22;33900;53.640;9.942;2023-04-25T06:03:16;10.60;81.20
15099;DHT22;33900;53.640;9.942;2023-04-25T06:05:42;10.60;81.30
15099;DHT22;33900;53.640;9.942;2023-04-25T06:08:08;10.60;81.40
15099;DHT22;33900;53.640;9.942;2023-04-25T06:10:34;10.60;81.40
15099;DHT22;33900;53.640;9.942;2023-04-25T06:12:59;10.60;81.50
15099;DHT22;33900;53.640;9.942;2023-04-25T06:15:26;10.70;81.30
15099;DHT22;33900;53.640;9.942;2023-04-25T06:17:51;10.70;81.30
15099;DHT22;33900;53.640;9.942;2023-04-25T06:20:17;10.70;81.20
15099;DHT22;33900;53.640;9.942;2023-04-25T06:22:43;10.70;81.00
15099;DHT22;33900;53.640;9.942;2023-04-25T06:25:14;10.70;80.80
15099;DHT22;33900;53.640;9.942;2023-04-25T06:27:40;10.80;80.80
15099;DHT22;33900;53.640;9.942;2023-04-25T06:30:06;10.80;80.50
15099;DHT22;33900;53.640;9.942;2023-04-25T06:32:33;10.80;80.40
15099;DHT22;33900;53.640;9.942;2023-04-25T06:35:00;10.80;80.40
15099;DHT22;33900;53.640;9.942;2023-04-25T06:37:26;10.80;80.40
15099;DHT22;33900;53.640;9.942;2023-04-25T06:39:52;10.80;80.50
15099;DHT22;33900;53.640;9.942;2023-04-25T06:42:17;10.80;80.20
15099;DHT22;33900;53.640;9.942;2023-04-25T06:44:56;10.80;79.90
15099;DHT22;33900;53.640;9.942;2023-04-25T06:47:22;10.80;79.60
15099;DHT22;33900;53.640;9.942;2023-04-25T06:49:49;10.80;79.80
15099;DHT22;33900;53.640;9.942;2023-04-25T06:52:15;10.90;80.10
15099;DHT22;33900;53.640;9.942;2023-04-25T06:54:41;10.90;80.10
15099;DHT22;33900;53.640;9.942;2023-04-25T06:57:24;11.00;80.30
15099;DHT22;33900;53.640;9.942;2023-04-25T06:59:50;10.90;80.00
15099;DHT22;33900;53.640;9.942;2023-04-25T07:02:16;11.00;80.20
15099;DHT22;33900;53.640;9.942;2023-04-25T07:04:42;11.00;80.10
15099;DHT22;33900;53.640;9.942;2023-04-25T07:07:11;11.00;79.70
15099;DHT22;33900;53.640;9.942;2023-04-25T07:09:43;11.00;79.70
15099;DHT22;33900;53.640;9.942;2023-04-25T07:12:09;11.00;79.70
15099;DHT22;33900;53.640;9.942;2023-04-25T07:14:35;11.00;79.20
15099;DHT22;33900;53.640;9.942;2023-04-25T07:17:01;11.00;79.10
15099;DHT22;33900;53.640;9.942;2023-04-25T07:19:29;11.00;79.50
15099;DHT22;33900;53.640;9.942;2023-04-25T07:21:58;11.00;79.60
15099;DHT22;33900;53.640;9.942;2023-04-25T07:24:24;11.00;79.80
15099;DHT22;33900;53.640;9.942;2023-04-25T07:26:51;10.90;80.10
15099;DHT22;33900;53.640;9.942;2023-04-25T07:29:29;10.90;80.40
15099;DHT22;33900;53.640;9.942;2023-04-25T07:31:58;10.90;80.60
15099;DHT22;33900;53.640;9.942;2023-04-25T07:34:24;10.90;80.90
15099;DHT22;33900;53.640;9.942;2023-04-25T07:36:49;10.90;81.30
15099;DHT22;33900;53.640;9.942;2023-04-25T07:39:15;10.90;81.30
15099;DHT22;33900;53.640;9.942;2023-04-25T07:41:43;10.90;81.50
15099;DHT22;33900;53.640;9.942;2023-04-25T07:44:13;10.90;81.70
15099;DHT22;33900;53.640;9.942;2023-04-25T07:46:39;10.90;81.50
15099;DHT22;33900;53.640;9.942;2023-04-25T07:49:06;10.90;81.30
15099;DHT22;33900;53.640;9.942;2023-04-25T07:51:32;11.00;81.50
15099;DHT22;33900;53.640;9.942;2023-04-25T07:54:03;11.00;81.60
15099;DHT22;33900;53.640;9.942;2023-04-25T07:56:33;11.10;81.90
15099;DHT22;33900;53.640;9.942;2023-04-25T07:58:59;11.10;82.20
15099;DHT22;33900;53.640;9.942;2023-04-25T08:01:25;11.20;82.00
15099;DHT22;33900;53.640;9.942;2023-04-25T08:03:55;11.20;81.80
15099;DHT22;33900;53.640;9.942;2023-04-25T08:06:26;11.30;81.90
15099;DHT22;33900;53.640;9.942;2023-04-25T08:09:02;11.30;81.60
15099;DHT22;33900;53.640;9.942;2023-04-25T08:11:34;11.30;81.00
15099;DHT22;33900;53.640;9.942;2023-04-25T08:14:03;11.30;80.40
15099;DHT22;33900;53.640;9.942;2023-04-25T08:16:30;11.40;80.50
15099;DHT22;33900;53.640;9.942;2023-04-25T08:18:56;11.30;80.70
15099;DHT22;33900;53.640;9.942;2023-04-25T08:21:22;11.30;80.80
15099;DHT22;33900;53.640;9.942;2023-04-25T08:23:49;11.40;81.30
15099;DHT22;33900;53.640;9.942;2023-04-25T08:26:25;11.30;81.20
15099;DHT22;33900;53.640;9.942;2023-04-25T08:28:51;11.30;81.30
15099;DHT22;33900;53.640;9.942;2023-04-25T08:31:17;11.30;81.60
15099;DHT22;33900;53.640;9.942;2023-04-25T08:33:51;11.30;82.10
15099;DHT22;33900;53.640;9.942;2023-04-25T08:36:22;11.30;82.60
15099;DHT22;33900;53.640;9.942;2023-04-25T08:38:49;11.30;82.70
15099;DHT22;33900;53.640;9.942;2023-04-25T08:41:18;11.30;82.90
15099;DHT22;33900;53.640;9.942;2023-04-25T08:43:46;11.20;83.00
15099;DHT22;33900;53.640;9.942;2023-04-25T08:46:13;11.20;83.30
15099;DHT22;33900;53.640;9.942;2023-04-25T08:49:19;11.20;83.40
15099;DHT22;33900;53.640;9.942;2023-04-25T08:51:46;11.20;83.70
15099;DHT22;33900;53.640;9.942;2023-04-25T08:54:13;11.30;84.10
15099;DHT22;33900;53.640;9.942;2023-04-25T08:56:40;11.30;85.00
15099;DHT22;33900;53.640;9.942;2023-04-25T08:59:06;11.50;86.20
15099;DHT22;33900;53.640;9.942;2023-04-25T09:01:35;11.60;86.10
15099;DHT22;33900;53.640;9.942;2023-04-25T09:04:01;11.70;85.30
15099;DHT22;33900;53.640;9.942;2023-04-25T09:06:31;11.70;84.00
15099;DHT22;33900;53.640;9.942;2023-04-25T09:09:05;11.70;82.80
15099;DHT22;33900;53.640;9.942;2023-04-25T09:11:34;11.80;82.70
15099;DHT22;33900;53.640;9.942;2023-04-25T09:14:14;11.70;81.90
15099;DHT22;33900;53.640;9.942;2023-04-25T09:16:58;11.80;81.90
15099;DHT22;33900;53.640;9.942;2023-04-25T09:19:51;11.80;82.10
15099;DHT22;33900;53.640;9.942;2023-04-25T09:22:29;11.80;82.50
15099;DHT22;33900;53.640;9.942;2023-04-25T09:24:55;11.80;82.40
15099;DHT22;33900;53.640;9.942;2023-04-25T09:27:25;11.90;82.00
15099;DHT22;33900;53.640;9.942;2023-04-25T09:30:08;11.90;82.00
15099;DHT22;33900;53.640;9.942;2023-04-25T09:33:03;11.90;81.70
15099;DHT22;33900;53.640;9.942;2023-04-25T09:35:29;12.00;81.20
15099;DHT22;33900;53.640;9.942;2023-04-25T09:37:59;12.00;80.50
15099;DHT22;33900;53.640;9.942;2023-04-25T09:40:46;12.00;80.40
15099;DHT22;33900;53.640;9.942;2023-04-25T09:43:35;11.90;80.30
15099;DHT22;33900;53.640;9.942;2023-04-25T09:46:01;11.80;80.60
15099;DHT22;33900;53.640;9.942;2023-04-25T09:48:29;11.80;81.50
15099;DHT22;33900;53.640;9.942;2023-04-25T09:51:08;11.80;81.80
15099;DHT22;33900;53.640;9.942;2023-04-25T09:53:35;11.70;82.10
15099;DHT22;33900;53.640;9.942;2023-04-25T09:56:11;11.80;83.10
15099;DHT22;33900;53.640;9.942;2023-04-25T09:58:38;11.90;83.70
15099;DHT22;33900;53.640;9.942;2023-04-25T10:01:05;11.90;84.10
15099;DHT22;33900;53.640;9.942;2023-04-25T10:03:40;11.90;85.10
15099;DHT22;33900;53.640;9.942;2023-04-25T10:06:19;12.00;84.80
15099;DHT22;33900;53.640;9.942;2023-04-25T10:08:49;12.00;85.30
15099;DHT22;33900;53.640;9.942;2023-04-25T10:11:16;12.00;84.50
15099;DHT22;33900;53.640;9.942;2023-04-25T10:13:42;12.10;84.40
15099;DHT22;33900;53.640;9.942;2023-04-25T10:16:08;12.10;83.20
15099;DHT22;33900;53.640;9.942;2023-04-25T10:18:34;12.10;82.80
15099;DHT22;33900;53.640;9.942;2023-04-25T10:21:00;12.20;82.30
15099;DHT22;33900;53.640;9.942;2023-04-25T10:23:27;12.20;81.90
15099;DHT22;33900;53.640;9.942;2023-04-25T10:25:54;12.20;80.50
15099;DHT22;33900;53.640;9.942;2023-04-25T10:28:22;12.20;80.30
15099;DHT22;33900;53.640;9.942;2023-04-25T10:31:01;12.20;80.00
15099;DHT22;33900;53.640;9.942;2023-04-25T10:36:17;12.30;79.30
15099;DHT22;33900;53.640;9.942;2023-04-25T10:38:43;12.30;79.50
15099;DHT22;33900;53.640;9.942;2023-04-25T10:41:10;12.30;79.40
15099;DHT22;33900;53.640;9.942;2023-04-25T10:43:36;12.40;79.40
15099;DHT22;33900;53.640;9.942;2023-04-25T10:46:12;12.40;78.50
15099;DHT22;33900;53.640;9.942;2023-04-25T10:48:38;12.40;78.50
15099;DHT22;33900;53.640;9.942;2023-04-25T10:51:16;12.50;78.60
15099;DHT22;33900;53.640;9.942;2023-04-25T10:53:46;12.50;77.00
15099;DHT22;33900;53.640;9.942;2023-04-25T10:56:33;12.50;77.40
15099;DHT22;33900;53.640;9.942;2023-04-25T10:59:11;12.50;77.40
15099;DHT22;33900;53.640;9.942;2023-04-25T11:01:41;12.50;77.10
15099;DHT22;33900;53.640;9.942;2023-04-25T11:04:20;12.60;77.30
15099;DHT22;33900;53.640;9.942;2023-04-25T11:06:51;12.60;76.60
15099;DHT22;33900;53.640;9.942;2023-04-25T11:09:19;12.60;75.60
15099;DHT22;33900;53.640;9.942;2023-04-25T11:11:52;12.60;75.20
15099;DHT22;33900;53.640;9.942;2023-04-25T11:14:19;12.60;75.30
15099;DHT22;33900;53.640;9.942;2023-04-25T11:16:45;12.60;75.70
15099;DHT22;33900;53.640;9.942;2023-04-25T11:19:11;12.50;75.70
15099;DHT22;33900;53.640;9.942;2023-04-25T11:21:37;12.50;76.00
15099;DHT22;33900;53.640;9.942;2023-04-25T11:24:02;12.50;76.40
15099;DHT22;33900;53.640;9.942;2023-04-25T11:26:28;12.50;76.80
15099;DHT22;33900;53.640;9.942;2023-04-25T11:28:59;12.50;77.20
15099;DHT22;33900;53.640;9.942;2023-04-25T11:31:25;12.50;77.40
15099;DHT22;33900;53.640;9.942;2023-04-25T11:33:54;12.50;77.40
15099;DHT22;33900;53.640;9.942;2023-04-25T11:36:27;12.60;77.10
15099;DHT22;33900;53.640;9.942;2023-04-25T11:38:53;12.60;76.90
15099;DHT22;33900;53.640;9.942;2023-04-25T11:41:19;12.60;77.30
15099;DHT22;33900;53.640;9.942;2023-04-25T11:43:48;12.60;76.10
15099;DHT22;33900;53.640;9.942;2023-04-25T11:46:16;12.70;76.10
15099;DHT22;33900;53.640;9.942;2023-04-25T11:48:43;12.70;75.50
15099;DHT22;33900;53.640;9.942;2023-04-25T11:51:11;12.80;75.10
15099;DHT22;33900;53.640;9.942;2023-04-25T11:53:38;12.80;74.80
15099;DHT22;33900;53.640;9.942;2023-04-25T11:56:08;12.90;74.30
15099;DHT22;33900;53.640;9.942;2023-04-25T11:58:53;12.90;74.00
15099;DHT22;33900;53.640;9.942;2023-04-25T12:01:31;12.90;72.00
15099;DHT22;33900;53.640;9.942;2023-04-25T12:03:57;13.00;72.50
15099;DHT22;33900;53.640;9.942;2023-04-25T12:06:27;13.00;73.20
15099;DHT22;33900;53.640;9.942;2023-04-25T12:09:00;13.20;73.70
15099;DHT22;33900;53.640;9.942;2023-04-25T12:11:31;13.20;73.60
15099;DHT22;33900;53.640;9.942;2023-04-25T12:14:02;13.40;72.80
15099;DHT22;33900;53.640;9.942;2023-04-25T12:16:29;13.40;72.80
15099;DHT22;33900;53.640;9.942;2023-04-25T12:18:56;13.50;71.70
15099;DHT22;33900;53.640;9.942;2023-04-25T12:21:23;13.60;70.90
15099;DHT22;33900;53.640;9.942;2023-04-25T12:23:53;13.70;71.00
15099;DHT22;33900;53.640;9.942;2023-04-25T12:26:20;13.80;71.30
15099;DHT22;33900;53.640;9.942;2023-04-25T12:28:46;13.90;70.20
15099;DHT22;33900;53.640;9.942;2023-04-25T12:31:12;13.90;70.50
15099;DHT22;33900;53.640;9.942;2023-04-25T12:33:40;14.00;69.90
15099;DHT22;33900;53.640;9.942;2023-04-25T12:36:08;14.10;69.90
15099;DHT22;33900;53.640;9.942;2023-04-25T12:38:38;14.20;69.80
15099;DHT22;33900;53.640;9.942;2023-04-25T12:41:05;14.20;69.50
15099;DHT22;33900;53.640;9.942;2023-04-25T12:43:31;14.30;69.10
15099;DHT22;33900;53.640;9.942;2023-04-25T12:45:57;14.40;68.60
15099;DHT22;33900;53.640;9.942;2023-04-25T12:48:23;14.40;66.80
15099;DHT22;33900;53.640;9.942;2023-04-25T12:50:50;14.40;66.30
15099;DHT22;33900;53.640;9.942;2023-04-25T12:53:21;14.40;66.30
15099;DHT22;33900;53.640;9.942;2023-04-25T12:55:51;14.40;66.30
15099;DHT22;33900;53.640;9.942;2023-04-25T12:58:20;14.40;66.60
15099;DHT22;33900;53.640;9.942;2023-04-25T13:00:46;14.40;67.50
15099;DHT22;33900;53.640;9.942;2023-04-25T13:03:12;14.40;68.40
15099;DHT22;33900;53.640;9.942;2023-04-25T13:05:38;14.40;68.90
15099;DHT22;33900;53.640;9.942;2023-04-25T13:08:04;14.50;69.30
15099;DHT22;33900;53.640;9.942;2023-04-25T13:10:30;14.50;68.70
15099;DHT22;33900;53.640;9.942;2023-04-25T13:12:56;14.60;68.60
15099;DHT22;33900;53.640;9.942;2023-04-25T13:15:22;14.50;67.60
15099;DHT22;33900;53.640;9.942;2023-04-25T13:17:47;14.50;66.50
15099;DHT22;33900;53.640;9.942;2023-04-25T13:20:13;14.40;66.10
15099;DHT22;33900;53.640;9.942;2023-04-25T13:22:40;14.40;65.80
15099;DHT22;33900;53.640;9.942;2023-04-25T13:25:06;14.30;66.10
15099;DHT22;33900;53.640;9.942;2023-04-25T13:27:33;14.20;66.80
15099;DHT22;33900;53.640;9.942;2023-04-25T13:30:03;14.20;66.90
15099;DHT22;33900;53.640;9.942;2023-04-25T13:32:36;14.20;67.50
15099;DHT22;33900;53.640;9.942;2023-04-25T13:35:02;14.20;67.80
15099;DHT22;33900;53.640;9.942;2023-04-25T13:37:31;14.20;68.10
15099;DHT22;33900;53.640;9.942;2023-04-25T13:39:59;14.30;68.30
15099;DHT22;33900;53.640;9.942;2023-04-25T13:42:25;14.30;67.40
15099;DHT22;33900;53.640;9.942;2023-04-25T13:44:50;14.20;67.10
15099;DHT22;33900;53.640;9.942;2023-04-25T13:47:16;14.20;67.80
15099;DHT22;33900;53.640;9.942;2023-04-25T13:49:42;14.00;68.10
15099;DHT22;33900;53.640;9.942;2023-04-25T13:52:08;14.00;68.90
15099;DHT22;33900;53.640;9.942;2023-04-25T13:54:34;13.90;68.90
15099;DHT22;33900;53.640;9.942;2023-04-25T13:57:04;13.80;68.90
15099;DHT22;33900;53.640;9.942;2023-04-25T13:59:30;13.80;69.00
15099;DHT22;33900;53.640;9.942;2023-04-25T14:01:59;13.70;68.60
15099;DHT22;33900;53.640;9.942;2023-04-25T14:04:25;13.60;68.80
15099;DHT22;33900;53.640;9.942;2023-04-25T14:07:00;13.60;68.90
15099;DHT22;33900;53.640;9.942;2023-04-25T14:09:27;13.60;69.60
15099;DHT22;33900;53.640;9.942;2023-04-25T14:11:53;13.60;70.10
15099;DHT22;33900;53.640;9.942;2023-04-25T14:14:19;13.60;70.30
15099;DHT22;33900;53.640;9.942;2023-04-25T14:16:46;13.70;70.50
15099;DHT22;33900;53.640;9.942;2023-04-25T14:19:14;13.70;70.60
15099;DHT22;33900;53.640;9.942;2023-04-25T14:21:40;13.70;70.60
15099;DHT22;33900;53.640;9.942;2023-04-25T14:24:06;13.70;70.80
15099;DHT22;33900;53.640;9.942;2023-04-25T14:26:33;13.80;70.60
15099;DHT22;33900;53.640;9.942;2023-04-25T14:28:58;13.80;70.40
15099;DHT22;33900;53.640;9.942;2023-04-25T14:31:27;13.90;70.10
15099;DHT22;33900;53.640;9.942;2023-04-25T14:33:53;13.90;70.10
15099;DHT22;33900;53.640;9.942;2023-04-25T14:36:21;13.90;69.50
15099;DHT22;33900;53.640;9.942;2023-04-25T14:38:47;14.00;69.10
15099;DHT22;33900;53.640;9.942;2023-04-25T14:41:13;14.00;69.50
15099;DHT22;33900;53.640;9.942;2023-04-25T14:43:39;14.10;69.30
15099;DHT22;33900;53.640;9.942;2023-04-25T14:46:07;14.10;69.20
15099;DHT22;33900;53.640;9.942;2023-04-25T14:48:33;14.10;69.10
15099;DHT22;33900;53.640;9.942;2023-04-25T14:50:59;14.20;67.20
15099;DHT22;33900;53.640;9.942;2023-04-25T14:53:26;14.10;67.20
15099;DHT22;33900;53.640;9.942;2023-04-25T14:55:52;14.20;66.50
15099;DHT22;33900;53.640;9.942;2023-04-25T14:58:18;14.20;65.80
15099;DHT22;33900;53.640;9.942;2023-04-25T15:00:43;14.20;65.50
15099;DHT22;33900;53.640;9.942;2023-04-25T15:03:09;14.20;65.10
15099;DHT22;33900;53.640;9.942;2023-04-25T15:05:41;14.10;64.80
15099;DHT22;33900;53.640;9.942;2023-04-25T15:08:06;14.10;64.80
15099;DHT22;33900;53.640;9.942;2023-04-25T15:10:32;14.00;65.60
15099;DHT22;33900;53.640;9.942;2023-04-25T15:12:58;14.00;66.30
15099;DHT22;33900;53.640;9.942;2023-04-25T15:15:23;14.00;66.80
15099;DHT22;33900;53.640;9.942;2023-04-25T15:17:49;14.00;66.80
15099;DHT22;33900;53.640;9.942;2023-04-25T15:20:15;14.00;66.80
15099;DHT22;33900;53.640;9.942;2023-04-25T15:22:42;14.00;67.20
15099;DHT22;33900;53.640;9.942;2023-04-25T15:25:09;14.00;67.40
15099;DHT22;33900;53.640;9.942;2023-04-25T15:27:37;14.10;66.70
15099;DHT22;33900;53.640;9.942;2023-04-25T15:30:07;14.10;66.40
15099;DHT22;33900;53.640;9.942;2023-04-25T15:32:33;14.00;65.80
15099;DHT22;33900;53.640;9.942;2023-04-25T15:35:02;14.00;65.50
15099;DHT22;33900;53.640;9.942;2023-04-25T15:37:28;13.90;65.60
15099;DHT22;33900;53.640;9.942;2023-04-25T15:40:04;13.90;66.10
15099;DHT22;33900;53.640;9.942;2023-04-25T15:42:35;13.90;66.40
15099;DHT22;33900;53.640;9.942;2023-04-25T15:45:01;13.90;66.20
15099;DHT22;33900;53.640;9.942;2023-04-25T15:47:27;13.90;65.60
15099;DHT22;33900;53.640;9.942;2023-04-25T15:49:53;13.90;64.70
15099;DHT22;33900;53.640;9.942;2023-04-25T15:52:18;13.80;64.40